Time;durP1;ratioP1;P1;durP2;ratioP2;P2;SDS_P1;SDS_P2;PMS_P1;PMS_P2;Temp;Humidity;BMP_temperature;BMP_pressure;BME280_temperature;BME280_humidity;BME280_pressure;Samples;Min_cycle;Max_cycle;Signal;HPM_P1;HPM_P2
2023/02/17 00:02:11;;;;;;;;;;;;;;;17.93;50.30;101752.06;7253985;19;153870;-54
2023/02/17 00:04:38;;;;;;;;;;;;;;;17.96;50.47;101753.47;7255506;19;153645;-54
2023/02/17 00:07:05;;;;;;;;;;;;;;;17.96;50.54;101754.31;7254026;19;153479;-55
2023/02/17 00:09:32;;;;;;;;;;;;;;;17.93;50.69;101738.09;7256070;19;153533;-55
2023/02/17 00:11:59;;;;;;;;;;;;;;;17.93;50.74;101740.03;7253379;19;153875;-55
2023/02/17 00:14:26;;;;;;;;;;;;;;;17.94;50.68;101750.97;7254230;19;154492;-54
2023/02/17 00:16:53;;;;;;;;;;;;;;;17.93;50.57;101746.47;7252058;19;152577;-55
2023/02/17 00:21:54;;;;;;;;;;;;;;;17.95;50.51;101755.41;7261010;19;153379;-54
2023/02/17 00:24:22;;;;;;;;;;;;;;;17.94;50.84;101750.13;7255178;19;152872;-55
2023/02/17 00:26:49;;;;;;;;;;;;;;;17.94;50.62;101755.72;7254513;19;154184;-55
2023/02/17 00:29:16;;;;;;;;;;;;;;;17.93;50.87;101756.81;7256908;19;154283;-54
2023/02/17 00:31:43;;;;;;;;;;;;;;;17.93;51.08;101748.44;7252899;19;152960;-54
2023/02/17 00:34:11;;;;;;;;;;;;;;;17.91;50.96;101745.91;7252399;19;154874;-55
2023/02/17 00:36:38;;;;;;;;;;;;;;;17.91;50.61;101745.91;7253752;19;153222;-54
2023/02/17 00:39:05;;;;;;;;;;;;;;;17.91;50.70;101743.09;7250063;19;153160;-55
2023/02/17 00:41:33;;;;;;;;;;;;;;;17.91;50.86;101742.25;7256244;19;154311;-55
2023/02/17 00:43:59;;;;;;;;;;;;;;;17.91;50.89;101739.47;7253530;19;154187;-54
2023/02/17 00:46:26;;;;;;;;;;;;;;;17.91;50.80;101736.66;7252196;19;154880;-54
2023/02/17 00:48:53;;;;;;;;;;;;;;;17.92;51.04;101732.75;7254637;19;154130;-54
2023/02/17 00:51:20;;;;;;;;;;;;;;;17.94;51.10;101744.53;7254249;19;153781;-54
2023/02/17 00:53:48;;;;;;;;;;;;;;;17.90;51.11;101735.00;7248667;19;153582;-55
2023/02/17 00:56:15;;;;;;;;;;;;;;;17.91;51.17;101734.72;7252902;19;154330;-55
2023/02/17 00:58:42;;;;;;;;;;;;;;;17.93;51.15;101735.31;7251404;19;152982;-55
2023/02/17 01:01:10;;;;;;;;;;;;;;;17.92;51.08;101739.19;7250721;19;156779;-54
2023/02/17 01:03:37;;;;;;;;;;;;;;;17.94;51.34;101733.34;7262057;19;153257;-55
2023/02/17 01:06:06;;;;;;;;;;;;;;;17.93;51.59;101731.66;7249626;19;153390;-54
2023/02/17 01:08:33;;;;;;;;;;;;;;;17.91;51.59;101728.28;7249699;19;154143;-55
2023/02/17 01:11:00;;;;;;;;;;;;;;;17.91;51.43;101737.50;7251310;19;152709;-54
2023/02/17 01:13:27;;;;;;;;;;;;;;;17.90;51.39;101729.41;7248012;19;153462;-54
2023/02/17 01:15:54;;;;;;;;;;;;;;;17.91;51.65;101731.06;7250915;19;152178;-55
2023/02/17 01:18:22;;;;;;;;;;;;;;;17.92;51.59;101724.38;7252591;19;153321;-54
2023/02/17 01:20:48;;;;;;;;;;;;;;;17.92;51.68;101724.38;7250382;19;154641;-55
2023/02/17 01:23:15;;;;;;;;;;;;;;;17.89;51.91;101722.97;7248105;19;154667;-55
2023/02/17 01:25:44;;;;;;;;;;;;;;;17.90;51.89;101718.22;7256178;19;152822;-55
2023/02/17 01:28:14;;;;;;;;;;;;;;;17.89;51.95;101722.97;7250294;19;153758;-55
2023/02/17 01:30:40;;;;;;;;;;;;;;;17.90;51.75;101730.22;7249160;19;153890;-54
2023/02/17 01:33:07;;;;;;;;;;;;;;;17.90;52.04;101719.03;7251710;19;154964;-54
2023/02/17 01:35:34;;;;;;;;;;;;;;;17.89;51.86;101706.22;7254069;19;153235;-55
2023/02/17 01:38:01;;;;;;;;;;;;;;;17.88;51.83;101710.09;7246348;19;153613;-55
2023/02/17 01:40:29;;;;;;;;;;;;;;;17.90;52.14;101721.03;7249700;19;155283;-54
2023/02/17 01:42:55;;;;;;;;;;;;;;;17.89;52.21;101714.59;7247942;19;152565;-55
2023/02/17 01:45:23;;;;;;;;;;;;;;;17.88;52.02;101714.84;7251478;19;152673;-55
2023/02/17 01:47:53;;;;;;;;;;;;;;;17.88;51.86;101715.69;7257533;19;154522;-54
2023/02/17 01:50:21;;;;;;;;;;;;;;;17.89;52.13;101714.59;7252600;19;155951;-54
2023/02/17 01:52:48;;;;;;;;;;;;;;;17.88;51.90;101712.91;7246634;19;154464;-55
2023/02/17 01:55:17;;;;;;;;;;;;;;;17.88;52.23;101712.06;7251781;19;153945;-54
2023/02/17 01:57:45;;;;;;;;;;;;;;;17.88;52.33;101701.72;7250977;19;154155;-54
2023/02/17 02:00:13;;;;;;;;;;;;;;;17.89;52.14;101706.22;7249926;19;154142;-54
2023/02/17 02:02:43;;;;;;;;;;;;;;;17.87;52.15;101705.63;7249150;19;155755;-54
2023/02/17 02:05:10;;;;;;;;;;;;;;;17.88;52.41;101715.69;7255307;19;153960;-55
2023/02/17 02:07:39;;;;;;;;;;;;;;;17.89;52.31;101713.75;7250473;19;153312;-54
2023/02/17 02:10:07;;;;;;;;;;;;;;;17.88;52.17;101715.69;7260364;19;152852;-55
2023/02/17 02:12:36;;;;;;;;;;;;;;;17.86;52.57;101717.91;7247757;19;153909;-54
2023/02/17 02:15:06;;;;;;;;;;;;;;;17.85;52.42;101709.81;7251983;19;152558;-55
2023/02/17 02:17:43;;;;;;;;;;;;;;;17.85;52.34;101716.25;7245462;19;152960;-54
2023/02/17 02:20:21;;;;;;;;;;;;;;;17.83;52.24;101698.91;7250731;19;154723;-54
2023/02/17 02:22:51;;;;;;;;;;;;;;;17.85;52.55;101699.47;7256552;19;153523;-54
2023/02/17 02:25:21;;;;;;;;;;;;;;;17.88;52.39;101701.72;7256618;19;154828;-54
2023/02/17 02:27:48;;;;;;;;;;;;;;;17.84;52.79;101699.75;7256674;19;154291;-56
2023/02/17 02:30:18;;;;;;;;;;;;;;;17.87;52.69;101696.41;7263300;19;152521;-56
2023/02/17 02:32:48;;;;;;;;;;;;;;;17.85;52.58;101690.25;7256940;19;154448;-55
2023/02/17 02:35:16;;;;;;;;;;;;;;;17.84;52.46;101697.78;7257954;19;152365;-55
2023/02/17 02:37:46;;;;;;;;;;;;;;;17.83;52.85;101687.72;7254862;19;155194;-55
2023/02/17 02:40:14;;;;;;;;;;;;;;;17.85;52.53;101698.63;7256485;19;156499;-55
2023/02/17 02:42:42;;;;;;;;;;;;;;;17.86;52.64;101697.50;7255695;19;152609;-55
2023/02/17 02:45:10;;;;;;;;;;;;;;;17.81;52.83;101695.53;7256294;19;154704;-53
2023/02/17 02:47:40;;;;;;;;;;;;;;;17.88;52.73;101704.53;7253302;19;154499;-55
2023/02/17 02:50:09;;;;;;;;;;;;;;;17.84;52.86;101706.19;7258033;19;152396;-55
2023/02/17 02:52:36;;;;;;;;;;;;;;;17.83;53.01;101721.25;7261967;19;153857;-55
2023/02/17 02:55:09;;;;;;;;;;;;;;;17.82;52.92;101721.53;7254488;19;152667;-55
2023/02/17 02:57:39;;;;;;;;;;;;;;;17.81;52.80;101717.88;7254796;19;152758;-55
2023/02/17 03:00:14;;;;;;;;;;;;;;;17.81;53.06;101708.69;7253305;19;153524;-55
2023/02/17 03:02:44;;;;;;;;;;;;;;;17.80;52.93;101707.84;7256893;19;154295;-55
2023/02/17 03:05:15;;;;;;;;;;;;;;;17.80;52.98;101707.00;7258415;19;153228;-55
2023/02/17 03:07:42;;;;;;;;;;;;;;;17.81;53.05;101720.69;7252352;19;154403;-55
2023/02/17 03:10:09;;;;;;;;;;;;;;;17.82;52.95;101719.56;7256855;19;154224;-55
2023/02/17 03:12:38;;;;;;;;;;;;;;;17.81;53.25;101706.69;7252494;19;153227;-55
2023/02/17 03:15:13;;;;;;;;;;;;;;;17.83;53.00;101700.84;7261064;19;156152;-55
2023/02/17 03:17:40;;;;;;;;;;;;;;;17.81;53.20;101706.69;7254060;19;154511;-55
2023/02/17 03:20:07;;;;;;;;;;;;;;;17.83;53.12;101717.63;7253655;19;153842;-55
2023/02/17 03:22:35;;;;;;;;;;;;;;;17.83;53.16;101703.66;7254627;19;154762;-55
2023/02/17 03:25:03;;;;;;;;;;;;;;;17.83;53.23;101701.69;7255702;19;153995;-55
2023/02/17 03:27:29;;;;;;;;;;;;;;;17.82;53.27;101691.63;7255437;19;153439;-55
2023/02/17 03:29:56;;;;;;;;;;;;;;;17.83;52.97;101698.06;7257762;19;154501;-55
2023/02/17 03:32:23;;;;;;;;;;;;;;;17.83;53.26;101696.09;7258309;19;154179;-55
2023/02/17 03:34:50;;;;;;;;;;;;;;;17.82;53.20;101697.22;7257490;19;153878;-55
2023/02/17 03:37:18;;;;;;;;;;;;;;;17.85;53.31;101702.28;7264537;19;153302;-55
2023/02/17 03:39:45;;;;;;;;;;;;;;;17.82;53.28;101701.97;7252559;19;154096;-55
2023/02/17 03:42:12;;;;;;;;;;;;;;;17.82;53.32;101701.97;7257839;19;153985;-55
2023/02/17 03:44:38;;;;;;;;;;;;;;;17.82;53.01;101696.38;7258712;19;153102;-55
2023/02/17 03:47:06;;;;;;;;;;;;;;;17.82;53.31;101697.22;7254823;19;156644;-55
2023/02/17 03:49:33;;;;;;;;;;;;;;;17.84;53.05;101705.34;7254250;19;152014;-55
2023/02/17 03:52:00;;;;;;;;;;;;;;;17.81;53.29;101697.50;7253909;19;153144;-55
2023/02/17 03:54:26;;;;;;;;;;;;;;;17.81;53.53;101722.66;7254707;19;152502;-55
2023/02/17 03:56:53;;;;;;;;;;;;;;;17.81;53.35;101709.50;7252062;19;154426;-55
2023/02/17 03:59:20;;;;;;;;;;;;;;;17.81;53.00;101705.88;7258835;19;153581;-55
2023/02/17 04:01:47;;;;;;;;;;;;;;;17.82;53.29;101694.41;7256027;19;156082;-55
2023/02/17 04:04:14;;;;;;;;;;;;;;;17.81;53.21;101689.94;7253937;19;153168;-55
2023/02/17 04:06:41;;;;;;;;;;;;;;;17.82;53.01;101690.78;7253119;19;155570;-54
2023/02/17 04:09:08;;;;;;;;;;;;;;;17.80;53.45;101693.88;7254120;19;152447;-55
2023/02/17 04:11:35;;;;;;;;;;;;;;;17.81;53.16;101700.31;7254833;19;152263;-55
2023/02/17 04:14:02;;;;;;;;;;;;;;;17.84;53.29;101696.94;7250290;19;153641;-55
2023/02/17 04:16:29;;;;;;;;;;;;;;;17.81;53.04;101695.53;7253780;19;153396;-55
2023/02/17 04:18:55;;;;;;;;;;;;;;;17.80;53.29;101699.44;7254581;19;157979;-54
2023/02/17 04:21:22;;;;;;;;;;;;;;;17.80;53.07;101707.00;7263862;19;153926;-54
2023/02/17 04:23:49;;;;;;;;;;;;;;;17.79;53.31;101703.34;7253701;19;154181;-54
2023/02/17 04:26:16;;;;;;;;;;;;;;;17.76;53.20;101701.94;7254508;19;157161;-55
2023/02/17 04:28:43;;;;;;;;;;;;;;;17.80;53.03;101704.19;7254587;19;153893;-55
2023/02/17 04:31:10;;;;;;;;;;;;;;;17.79;53.17;101700.56;7252371;19;152971;-54
2023/02/17 04:33:37;;;;;;;;;;;;;;;17.80;53.18;101727.41;7253967;19;153784;-54
2023/02/17 04:36:04;;;;;;;;;;;;;;;17.76;53.49;101704.72;7255529;19;153085;-54
2023/02/17 04:38:32;;;;;;;;;;;;;;;17.79;53.12;101706.16;7249541;19;153249;-54
2023/02/17 04:40:59;;;;;;;;;;;;;;;17.80;53.17;101710.63;7256687;19;153933;-54
2023/02/17 04:43:26;;;;;;;;;;;;;;;17.77;53.27;101716.75;7252412;19;154092;-55
2023/02/17 04:45:54;;;;;;;;;;;;;;;17.80;53.33;101710.63;7250725;19;153867;-55
2023/02/17 04:48:21;;;;;;;;;;;;;;;17.78;53.23;101713.69;7256036;19;154140;-54
2023/02/17 04:50:48;;;;;;;;;;;;;;;17.78;53.60;101724.88;7253591;19;153310;-54
2023/02/17 04:53:15;;;;;;;;;;;;;;;17.74;53.32;101700.53;7250834;19;153769;-54
2023/02/17 04:55:41;;;;;;;;;;;;;;;17.74;53.56;101703.31;7255236;19;153249;-54
2023/02/17 04:58:09;;;;;;;;;;;;;;;17.76;53.23;101704.72;7255444;19;154828;-54
2023/02/17 05:00:36;;;;;;;;;;;;;;;17.76;53.47;101709.50;7250376;19;153977;-54
2023/02/17 05:03:03;;;;;;;;;;;;;;;17.74;53.25;101711.72;7258407;19;154253;-54
2023/02/17 05:05:30;;;;;;;;;;;;;;;17.77;53.12;101717.59;7251644;19;154507;-53
2023/02/17 05:07:57;;;;;;;;;;;;;;;17.77;53.07;101711.16;7249022;19;153146;-53
2023/02/17 05:10:24;;;;;;;;;;;;;;;17.77;53.05;101719.53;7253074;19;154340;-55
2023/02/17 05:12:51;;;;;;;;;;;;;;;17.75;53.30;101721.78;7251353;19;154624;-55
2023/02/17 05:15:18;;;;;;;;;;;;;;;17.76;53.05;101735.47;7252860;19;154706;-55
2023/02/17 05:17:45;;;;;;;;;;;;;;;17.74;53.18;101720.09;7251642;19;153966;-55
2023/02/17 05:20:12;;;;;;;;;;;;;;;17.73;53.08;101718.41;7250378;19;154653;-55
2023/02/17 05:22:39;;;;;;;;;;;;;;;17.73;53.32;101710.88;7250814;19;153511;-55
2023/02/17 05:25:06;;;;;;;;;;;;;;;17.71;53.12;101710.31;7260376;19;154705;-55
2023/02/17 05:27:33;;;;;;;;;;;;;;;17.71;53.26;101712.25;7251786;19;154312;-55
2023/02/17 05:30:03;;;;;;;;;;;;;;;17.70;53.46;101721.75;7250536;19;152373;-55
2023/02/17 05:32:30;;;;;;;;;;;;;;;17.73;53.24;101730.44;7248760;19;154502;-54
2023/02/17 05:34:57;;;;;;;;;;;;;;;17.71;53.35;101710.31;7253044;19;152449;-53
2023/02/17 05:37:24;;;;;;;;;;;;;;;17.69;53.12;101717.25;7250834;19;152820;-55
2023/02/17 05:39:50;;;;;;;;;;;;;;;17.70;53.34;101718.94;7251213;19;154752;-56
2023/02/17 05:42:17;;;;;;;;;;;;;;;17.69;53.01;101706.09;7252660;19;153373;-54
2023/02/17 05:44:44;;;;;;;;;;;;;;;17.66;52.92;101717.81;7253558;19;154880;-54
2023/02/17 05:47:11;;;;;;;;;;;;;;;17.65;53.10;101708.59;7259910;19;154052;-54
2023/02/17 05:49:38;;;;;;;;;;;;;;;17.67;52.77;101716.72;7255672;19;155622;-54
2023/02/17 05:52:05;;;;;;;;;;;;;;;17.65;53.15;101716.97;7253179;19;154080;-54
2023/02/17 05:54:32;;;;;;;;;;;;;;;17.68;53.16;101718.38;7252058;19;154477;-55
2023/02/17 05:56:59;;;;;;;;;;;;;;;17.67;52.79;101711.94;7255333;19;152866;-55
2023/02/17 05:59:26;;;;;;;;;;;;;;;17.68;52.92;101707.19;7256850;19;155536;-54
2023/02/17 06:01:52;;;;;;;;;;;;;;;17.65;52.81;101703.00;7260222;19;152462;-54
2023/02/17 06:04:19;;;;;;;;;;;;;;;17.66;52.72;101726.19;7259851;19;152774;-54
2023/02/17 06:06:46;;;;;;;;;;;;;;;17.63;52.72;101712.75;7257671;19;153797;-53
2023/02/17 06:09:13;;;;;;;;;;;;;;;17.61;52.86;101724.22;7264274;19;153998;-54
2023/02/17 06:11:40;;;;;;;;;;;;;;;17.65;52.67;101708.59;7256183;19;153415;-54
2023/02/17 06:14:07;;;;;;;;;;;;;;;17.63;52.52;101705.22;7255567;19;152213;-54
2023/02/17 06:16:34;;;;;;;;;;;;;;;17.62;52.65;101708.28;7259427;19;153334;-54
2023/02/17 06:19:01;;;;;;;;;;;;;;;17.61;52.86;101709.41;7254833;19;155032;-54
2023/02/17 06:21:28;;;;;;;;;;;;;;;17.60;52.61;101711.34;7258820;19;152580;-54
2023/02/17 06:23:55;;;;;;;;;;;;;;;17.61;52.41;101701.00;7256090;19;154841;-54
2023/02/17 06:26:22;;;;;;;;;;;;;;;17.60;52.49;101704.91;7256503;19;153208;-55
2023/02/17 06:28:48;;;;;;;;;;;;;;;17.58;52.51;101691.19;7256426;19;153302;-54
2023/02/17 06:31:15;;;;;;;;;;;;;;;17.57;52.65;101689.50;7264425;19;153889;-55
2023/02/17 06:33:43;;;;;;;;;;;;;;;17.58;52.48;101687.56;7258152;19;154146;-54
2023/02/17 06:36:09;;;;;;;;;;;;;;;17.58;52.64;101682.81;7257388;19;154448;-55
2023/02/17 06:38:36;;;;;;;;;;;;;;;17.57;52.53;101681.13;7254666;19;154103;-55
2023/02/17 06:41:03;;;;;;;;;;;;;;;17.56;52.76;101699.00;7256120;19;153483;-54
2023/02/17 06:43:30;;;;;;;;;;;;;;;17.59;52.33;101692.03;7256590;19;153986;-54
2023/02/17 06:45:57;;;;;;;;;;;;;;;17.57;52.32;101688.66;7255376;19;154357;-54
2023/02/17 06:48:24;;;;;;;;;;;;;;;17.57;52.34;101702.63;7256894;19;154833;-54
2023/02/17 06:50:51;;;;;;;;;;;;;;;17.55;52.62;101708.50;7261194;19;154689;-54
2023/02/17 06:53:18;;;;;;;;;;;;;;;17.56;52.57;101704.59;7255055;19;154210;-54
2023/02/17 06:55:45;;;;;;;;;;;;;;;17.57;52.32;101700.69;7256050;19;153005;-54
2023/02/17 06:58:12;;;;;;;;;;;;;;;17.57;52.41;101700.69;7252108;19;153841;-54
2023/02/17 07:00:39;;;;;;;;;;;;;;;17.55;52.30;101691.72;7255004;19;153811;-54
2023/02/17 07:03:05;;;;;;;;;;;;;;;17.57;52.58;101686.72;7258088;19;153541;-54
2023/02/17 07:05:35;;;;;;;;;;;;;;;17.58;52.39;101681.97;7254617;19;153689;-54
2023/02/17 07:08:02;;;;;;;;;;;;;;;17.58;52.22;101685.63;7255038;19;152729;-54
2023/02/17 07:10:30;;;;;;;;;;;;;;;17.60;52.61;101690.94;7258387;19;152788;-54
2023/02/17 07:12:57;;;;;;;;;;;;;;;17.63;52.63;101682.84;7259855;19;153888;-54
2023/02/17 07:15:24;;;;;;;;;;;;;;;17.66;52.52;101685.13;7257133;19;155042;-54
2023/02/17 07:17:50;;;;;;;;;;;;;;;17.73;52.70;101702.47;7253220;19;154672;-54
2023/02/17 07:20:18;;;;;;;;;;;;;;;17.78;52.49;101693.28;7255855;19;153815;-54
2023/02/17 07:22:44;;;;;;;;;;;;;;;17.82;52.72;101702.81;7253732;19;154422;-54
2023/02/17 07:25:11;;;;;;;;;;;;;;;17.89;52.62;101711.81;7255171;19;153617;-54
2023/02/17 07:27:38;;;;;;;;;;;;;;;17.94;52.28;101706.25;7255283;19;154226;-54
2023/02/17 07:30:06;;;;;;;;;;;;;;;18.02;52.39;101714.09;7255684;19;153544;-54
2023/02/17 07:32:34;;;;;;;;;;;;;;;18.09;52.47;101713.81;7254604;19;153579;-54
2023/02/17 07:35:01;;;;;;;;;;;;;;;18.14;52.16;101711.91;7263599;19;152035;-55
2023/02/17 07:37:28;;;;;;;;;;;;;;;18.21;52.07;101714.44;7252059;19;154702;-54
2023/02/17 07:39:56;;;;;;;;;;;;;;;18.27;51.86;101724.53;7254566;19;152729;-55
2023/02/17 07:42:23;;;;;;;;;;;;;;;18.32;51.95;101729.28;7254490;19;153929;-55
2023/02/17 07:44:50;;;;;;;;;;;;;;;18.39;51.94;101732.69;7252938;19;153750;-54
2023/02/17 07:47:16;;;;;;;;;;;;;;;18.44;51.61;101746.72;7255715;19;154020;-55
2023/02/17 07:49:43;;;;;;;;;;;;;;;18.50;51.38;101745.59;7256000;19;153436;-54
2023/02/17 07:52:10;;;;;;;;;;;;;;;18.56;51.40;101769.72;7254653;19;154056;-55
2023/02/17 07:54:37;;;;;;;;;;;;;;;18.61;51.21;101783.72;7255895;19;154568;-55
2023/02/17 07:57:04;;;;;;;;;;;;;;;18.66;51.38;101789.34;7260274;19;153902;-55
2023/02/17 07:59:31;;;;;;;;;;;;;;;18.72;51.41;101807.81;7257115;19;154144;-54
2023/02/17 08:01:58;;;;;;;;;;;;;;;18.78;50.80;101806.72;7254897;19;154560;-55
2023/02/17 08:04:25;;;;;;;;;;;;;;;18.85;51.13;101806.47;7254843;19;154265;-55
2023/02/17 08:06:52;;;;;;;;;;;;;;;18.89;50.88;101810.41;7254302;19;151861;-55
2023/02/17 08:14:21;;;;;;;;;;;;;;;19.11;53.44;101830.59;7252664;19;153712;-54
2023/02/17 08:16:48;;;;;;;;;;;;;;;19.19;52.43;101821.66;7253486;19;154441;-54
2023/02/17 08:19:15;;;;;;;;;;;;;;;19.22;51.96;101831.44;7259741;19;153841;-55
2023/02/17 08:21:42;;;;;;;;;;;;;;;19.35;53.39;101814.94;7251891;19;153790;-54
2023/02/17 08:24:09;;;;;;;;;;;;;;;19.35;53.35;101808.50;7249911;19;156133;-55
2023/02/17 08:26:36;;;;;;;;;;;;;;;19.40;52.29;101800.91;7251235;19;153618;-55
2023/02/17 08:29:03;;;;;;;;;;;;;;;19.43;52.01;101810.75;7253888;19;154231;-55
2023/02/17 08:31:32;;;;;;;;;;;;;;;19.47;51.32;101806.28;7252381;19;154314;-54
2023/02/17 08:34:00;;;;;;;;;;;;;;;19.49;51.35;101815.25;7252315;19;152638;-54
2023/02/17 08:36:27;;;;;;;;;;;;;;;19.53;50.81;101822.81;7252708;19;152918;-54
2023/02/17 08:38:55;;;;;;;;;;;;;;;19.60;50.99;101824.50;7248169;19;154131;-54
2023/02/17 08:41:22;;;;;;;;;;;;;;;19.61;50.40;101829.84;7257853;19;152462;-54
2023/02/17 08:43:49;;;;;;;;;;;;;;;19.65;50.36;101835.72;7252576;19;153675;-56
2023/02/17 08:46:17;;;;;;;;;;;;;;;19.69;50.49;101836.84;7253708;19;152862;-56
2023/02/17 08:48:45;;;;;;;;;;;;;;;19.74;50.77;101848.06;7252663;19;152819;-57
2023/02/17 08:51:13;;;;;;;;;;;;;;;19.76;51.13;101841.03;7253572;19;154007;-54
2023/02/17 08:53:41;;;;;;;;;;;;;;;19.80;50.83;101842.19;7249402;19;153522;-55
2023/02/17 08:56:08;;;;;;;;;;;;;;;19.82;50.77;101813.81;7254415;19;155266;-54
2023/02/17 08:58:36;;;;;;;;;;;;;;;19.84;50.23;101809.63;7247971;19;154521;-54
2023/02/17 09:01:03;;;;;;;;;;;;;;;19.85;50.43;101814.09;7259589;19;153472;-54
2023/02/17 09:03:32;;;;;;;;;;;;;;;19.88;49.87;101816.34;7251996;19;155376;-54
2023/02/17 09:06:00;;;;;;;;;;;;;;;19.92;50.08;101814.66;7254524;19;153567;-57
2023/02/17 09:08:27;;;;;;;;;;;;;;;19.95;49.75;101816.88;7250925;19;155080;-55
2023/02/17 09:10:54;;;;;;;;;;;;;;;19.98;49.76;101821.94;7250032;19;154598;-55
2023/02/17 09:13:21;;;;;;;;;;;;;;;20.02;49.33;101815.75;7249133;19;154016;-55
2023/02/17 09:15:48;;;;;;;;;;;;;;;20.06;48.94;101819.69;7250294;19;155617;-54
2023/02/17 09:18:15;;;;;;;;;;;;;;;20.07;49.07;101811.00;7249855;19;153758;-54
2023/02/17 09:20:42;;;;;;;;;;;;;;;20.12;48.97;101804.53;7251476;19;153885;-55
2023/02/17 09:23:09;;;;;;;;;;;;;;;20.15;48.92;101807.59;7256289;19;154283;-55
2023/02/17 09:25:36;;;;;;;;;;;;;;;20.17;48.20;101807.31;7250501;19;153695;-54
2023/02/17 09:28:04;;;;;;;;;;;;;;;20.18;48.33;101806.16;7249945;19;154250;-54
2023/02/17 09:30:31;;;;;;;;;;;;;;;20.20;48.43;101807.59;7251747;19;154522;-54
2023/02/17 09:32:58;;;;;;;;;;;;;;;20.21;48.42;101808.44;7258600;19;154355;-54
2023/02/17 09:35:25;;;;;;;;;;;;;;;20.23;48.49;101809.81;7256862;19;155318;-54
2023/02/17 09:37:53;;;;;;;;;;;;;;;20.25;47.89;101817.94;7254347;19;155852;-55
2023/02/17 09:40:22;;;;;;;;;;;;;;;20.26;48.23;101820.44;7261275;19;153953;-55
2023/02/17 09:42:50;;;;;;;;;;;;;;;20.27;47.98;101819.34;7259601;19;153880;-55
2023/02/17 09:45:19;;;;;;;;;;;;;;;20.27;47.75;101819.34;7265018;19;154674;-55
2023/02/17 09:47:48;;;;;;;;;;;;;;;20.28;48.09;101815.41;7256962;19;153647;-55
2023/02/17 09:50:18;;;;;;;;;;;;;;;20.29;47.99;101816.25;7256767;19;154330;-55
2023/02/17 09:52:47;;;;;;;;;;;;;;;20.26;48.00;101800.00;7256590;19;154406;-55
2023/02/17 09:55:19;;;;;;;;;;;;;;;20.28;47.92;101804.19;7258515;19;154894;-55
2023/02/17 09:57:50;;;;;;;;;;;;;;;20.30;47.86;101790.75;7256959;19;152555;-55
2023/02/17 10:00:25;;;;;;;;;;;;;;;20.29;47.64;101793.81;7257102;19;153681;-55
2023/02/17 10:02:54;;;;;;;;;;;;;;;20.27;47.79;101791.28;7258754;19;154733;-55
2023/02/17 10:05:23;;;;;;;;;;;;;;;20.27;47.79;101793.22;7258559;19;156275;-55
2023/02/17 10:07:52;;;;;;;;;;;;;;;20.27;47.60;101794.06;7262829;19;152411;-55
2023/02/17 10:10:23;;;;;;;;;;;;;;;20.26;47.49;101783.97;7256948;19;153744;-55
2023/02/17 10:12:54;;;;;;;;;;;;;;;20.25;47.72;101799.16;7254568;19;154428;-55
2023/02/17 10:15:24;;;;;;;;;;;;;;;20.25;47.34;101795.50;7256539;19;155579;-55
2023/02/17 10:17:52;;;;;;;;;;;;;;;20.21;47.55;101785.97;7255653;19;154295;-55
2023/02/17 10:20:22;;;;;;;;;;;;;;;20.25;47.79;101787.09;7259809;19;151996;-55
2023/02/17 10:22:51;;;;;;;;;;;;;;;20.25;47.52;101789.88;7255025;19;152727;-55
2023/02/17 10:25:22;;;;;;;;;;;;;;;20.23;47.59;101792.13;7257929;19;155342;-55
2023/02/17 10:27:50;;;;;;;;;;;;;;;20.18;47.89;101787.38;7259128;19;154072;-55
2023/02/17 10:30:25;;;;;;;;;;;;;;;20.20;48.03;101796.38;7263263;19;153893;-55
2023/02/17 10:32:59;;;;;;;;;;;;;;;20.18;47.76;101787.38;7256599;19;154756;-55
2023/02/17 10:35:29;;;;;;;;;;;;;;;20.16;47.50;101784.03;7260360;19;155531;-55
2023/02/17 10:37:59;;;;;;;;;;;;;;;20.11;47.96;101789.66;7255032;19;154455;-54
2023/02/17 10:40:28;;;;;;;;;;;;;;;20.11;47.88;101777.59;7258308;19;154346;-54
2023/02/17 10:42:57;;;;;;;;;;;;;;;20.10;47.79;101776.75;7250670;19;154431;-54
2023/02/17 10:45:26;;;;;;;;;;;;;;;20.10;47.95;101778.72;7254125;19;153947;-54
2023/02/17 10:47:56;;;;;;;;;;;;;;;20.07;48.04;101782.09;7257458;19;152467;-55
2023/02/17 10:50:24;;;;;;;;;;;;;;;20.03;48.13;101779.03;7258340;19;154218;-55
2023/02/17 10:52:52;;;;;;;;;;;;;;;20.07;48.01;101779.28;7259703;19;154466;-55
2023/02/17 10:55:23;;;;;;;;;;;;;;;20.04;47.66;101786.28;7256037;19;153430;-55
2023/02/17 10:57:53;;;;;;;;;;;;;;;20.00;47.90;101779.56;7255968;19;154696;-54
2023/02/17 11:00:21;;;;;;;;;;;;;;;20.04;47.73;101791.06;7256724;19;153480;-55
2023/02/17 11:02:51;;;;;;;;;;;;;;;20.00;47.99;101790.78;7255913;19;155578;-55
2023/02/17 11:05:20;;;;;;;;;;;;;;;20.00;48.08;101779.56;7255142;19;154619;-55
2023/02/17 11:07:51;;;;;;;;;;;;;;;20.01;47.88;101780.41;7255785;19;154404;-54
2023/02/17 11:10:19;;;;;;;;;;;;;;;20.00;48.11;101790.78;7254305;19;155442;-54
2023/02/17 11:12:48;;;;;;;;;;;;;;;19.95;48.16;101802.88;7257930;19;156480;-54
2023/02/17 11:15:18;;;;;;;;;;;;;;;19.94;48.28;101794.75;7255914;19;153603;-55
2023/02/17 11:17:45;;;;;;;;;;;;;;;19.97;48.21;101800.63;7254379;19;153864;-55
2023/02/17 11:20:13;;;;;;;;;;;;;;;19.91;48.18;101801.75;7253708;19;153110;-55
2023/02/17 11:22:43;;;;;;;;;;;;;;;19.91;48.01;101818.59;7254552;19;154545;-55
2023/02/17 11:25:13;;;;;;;;;;;;;;;19.89;48.54;101818.03;7257973;19;154063;-55
2023/02/17 11:27:40;;;;;;;;;;;;;;;19.87;48.15;101820.28;7255723;19;154092;-55
2023/02/17 11:30:08;;;;;;;;;;;;;;;19.84;48.63;101820.84;7256849;19;154597;-55
2023/02/17 11:32:35;;;;;;;;;;;;;;;19.82;48.58;101825.88;7256205;19;153809;-55
2023/02/17 11:35:05;;;;;;;;;;;;;;;19.76;48.70;101820.59;7263882;19;153743;-55
2023/02/17 11:37:36;;;;;;;;;;;;;;;19.78;48.37;101813.56;7253109;19;154296;-54
2023/02/17 11:40:14;;;;;;;;;;;;;;;19.64;49.22;101820.84;7256557;19;153288;-55
2023/02/17 11:42:41;;;;;;;;;;;;;;;19.66;49.00;101813.03;7252337;19;152818;-55
2023/02/17 11:45:11;;;;;;;;;;;;;;;19.59;49.56;101806.84;7252747;19;154579;-55
2023/02/17 11:47:43;;;;;;;;;;;;;;;19.57;49.49;101809.09;7255111;19;153233;-55
2023/02/17 11:50:10;;;;;;;;;;;;;;;19.53;49.59;101808.81;7257941;19;153681;-55
2023/02/17 11:52:45;;;;;;;;;;;;;;;19.54;49.63;101807.69;7254913;19;154888;-54
2023/02/17 11:55:15;;;;;;;;;;;;;;;19.51;49.73;101804.59;7251085;19;153132;-54
2023/02/17 11:57:51;;;;;;;;;;;;;;;19.49;49.71;101810.47;7261193;19;155596;-54
2023/02/17 12:00:19;;;;;;;;;;;;;;;19.47;49.91;101837.13;7254430;19;153279;-55
2023/02/17 12:02:46;;;;;;;;;;;;;;;19.45;49.67;101823.38;7255794;19;153946;-55
2023/02/17 12:05:20;;;;;;;;;;;;;;;19.44;49.74;101816.09;7257647;19;155715;-55
2023/02/17 12:07:55;;;;;;;;;;;;;;;19.41;50.20;101815.78;7255547;19;153989;-55
2023/02/17 12:10:25;;;;;;;;;;;;;;;19.42;50.17;101823.91;7252087;19;153884;-55
2023/02/17 12:12:55;;;;;;;;;;;;;;;19.41;50.00;101824.19;7250814;19;155598;-55
2023/02/17 12:15:25;;;;;;;;;;;;;;;19.44;49.86;101829.28;7254340;19;152459;-55
2023/02/17 12:17:55;;;;;;;;;;;;;;;19.40;49.94;101834.56;7253985;19;155975;-54
2023/02/17 12:20:31;;;;;;;;;;;;;;;19.36;50.23;101835.38;7258724;19;155287;-54
2023/02/17 12:23:05;;;;;;;;;;;;;;;19.37;50.13;101831.47;7251490;19;153597;-55
2023/02/17 12:25:36;;;;;;;;;;;;;;;19.35;50.36;101847.75;7255449;19;153852;-54
2023/02/17 12:28:06;;;;;;;;;;;;;;;19.37;49.99;101842.69;7250281;19;153934;-54
2023/02/17 12:30:36;;;;;;;;;;;;;;;19.38;49.95;101855.59;7255127;19;152930;-54
2023/02/17 12:33:03;;;;;;;;;;;;;;;19.35;50.20;101854.16;7255430;19;156271;-54
2023/02/17 12:35:39;;;;;;;;;;;;;;;19.30;50.22;101858.94;7257108;19;153622;-55
2023/02/17 12:38:10;;;;;;;;;;;;;;;19.30;50.29;101844.94;7253365;19;153640;-55
2023/02/17 12:40:40;;;;;;;;;;;;;;;19.29;50.40;101857.25;7252570;19;154387;-55